createdAt,value
2022-09-15T00:01:01.826Z,51.9880
2022-09-15T00:02:04.251Z,51.8510
2022-09-15T00:03:06.440Z,51.9880
2022-09-15T00:04:06.457Z,51.9760
2022-09-15T00:05:08.757Z,51.9220
2022-09-15T00:06:10.963Z,51.8870
2022-09-15T00:07:13.216Z,51.8350
2022-09-15T00:08:15.475Z,51.8350
2022-09-15T00:09:17.695Z,51.8920
2022-09-15T00:10:19.974Z,51.9520
2022-09-15T00:11:22.182Z,51.9790
2022-09-15T00:12:24.423Z,51.9380
2022-09-15T00:13:24.514Z,51.9280
2022-09-15T00:14:26.823Z,51.8860
2022-09-15T00:15:28.969Z,51.8670
2022-09-15T00:16:31.294Z,51.8670
2022-09-15T00:17:33.433Z,51.8900
2022-09-15T00:18:35.744Z,51.9380
2022-09-15T00:19:37.992Z,51.9960
2022-09-15T00:20:40.311Z,51.9790
2022-09-15T00:21:42.559Z,52.0400
2022-09-15T00:22:44.775Z,52.1230
2022-09-15T00:23:44.905Z,52.2990
2022-09-15T00:24:47.175Z,52.3840
2022-09-15T00:25:49.467Z,52.4010
2022-09-15T00:26:51.718Z,52.3870
2022-09-15T00:27:53.976Z,52.3640
2022-09-15T00:28:56.240Z,52.2900
2022-09-15T00:29:58.467Z,52.2900
2022-09-15T00:31:00.770Z,52.2210
2022-09-15T00:32:02.885Z,52.2520
2022-09-15T00:33:03.009Z,52.3040
2022-09-15T00:34:05.234Z,52.2690
2022-09-15T00:35:07.477Z,52.2330
2022-09-15T00:36:09.733Z,52.2980
2022-09-15T00:37:11.955Z,52.3550
2022-09-15T00:38:14.198Z,52.3270
2022-09-15T00:39:16.397Z,52.3820
2022-09-15T00:40:18.661Z,52.3610
2022-09-15T00:41:20.874Z,52.4190
2022-09-15T00:42:22.969Z,52.3880
2022-09-15T00:43:25.203Z,52.3610
2022-09-15T00:44:27.440Z,52.3670
2022-09-15T00:45:27.660Z,52.3810
2022-09-15T00:46:29.807Z,52.3610
2022-09-15T00:47:32.041Z,52.2850
2022-09-15T00:48:34.281Z,52.3460
2022-09-15T00:49:36.529Z,52.4060
2022-09-15T00:50:38.722Z,52.4940
2022-09-15T00:51:40.929Z,52.4590
2022-09-15T00:52:43.113Z,52.4950
2022-09-15T00:53:45.337Z,52.5280
2022-09-15T00:54:41.652Z,52.7270
2022-09-15T00:56:43.417Z,52.5380
2022-09-15T00:57:45.563Z,52.4840
2022-09-15T00:58:47.758Z,52.4590
2022-09-15T00:59:49.960Z,52.4070
2022-09-15T01:00:52.241Z,52.3740
2022-09-15T01:01:54.457Z,52.3620
2022-09-15T01:02:56.601Z,52.3610
2022-09-15T01:03:58.824Z,52.3830
2022-09-15T01:05:01.041Z,52.4030
2022-09-15T01:06:03.218Z,52.4130
2022-09-15T01:07:05.442Z,52.4030
2022-09-15T01:08:07.604Z,52.3490
2022-09-15T01:09:09.800Z,52.4070
2022-09-15T01:10:09.849Z,52.3550
2022-09-15T01:11:12.065Z,52.3430
2022-09-15T01:12:14.336Z,52.3440
2022-09-15T01:13:16.540Z,52.4750
2022-09-15T01:14:18.738Z,52.5980
2022-09-15T01:15:20.945Z,52.6040
2022-09-15T01:16:23.215Z,52.5750
2022-09-15T01:17:25.364Z,52.4900
2022-09-15T01:18:27.492Z,52.5660
2022-09-15T01:19:29.702Z,52.6160
2022-09-15T01:20:31.901Z,52.4780
2022-09-15T01:21:34.118Z,52.4030
2022-09-15T01:22:36.346Z,52.3430
2022-09-15T01:23:38.486Z,52.2520
2022-09-15T01:24:40.709Z,52.3420
2022-09-15T01:25:42.906Z,52.3290
2022-09-15T01:26:45.107Z,52.2940
2022-09-15T01:27:45.217Z,52.2130
2022-09-15T01:28:47.377Z,52.1670
2022-09-15T01:29:49.569Z,52.0880
2022-09-15T01:30:51.775Z,52.1240
2022-09-15T01:31:54.016Z,52.1230
2022-09-15T01:32:56.248Z,52.3370
2022-09-15T01:33:58.425Z,52.4100
2022-09-15T01:35:00.644Z,52.5620
2022-09-15T01:36:02.869Z,52.4460
2022-09-15T01:37:05.092Z,52.4230
2022-09-15T01:38:07.313Z,52.4020
2022-09-15T01:39:09.483Z,52.5060
2022-09-15T01:40:11.803Z,52.4930
2022-09-15T01:41:13.944Z,52.4020
2022-09-15T01:42:16.188Z,52.4100
2022-09-15T01:43:16.269Z,52.3870
2022-09-15T01:44:18.494Z,52.3670
2022-09-15T01:45:20.741Z,52.3660
2022-09-15T01:46:22.893Z,52.3370
2022-09-15T01:47:25.137Z,52.4320
2022-09-15T01:48:27.555Z,52.5030
2022-09-15T01:49:29.544Z,52.5820
2022-09-15T01:50:31.775Z,52.5630
2022-09-15T01:51:33.994Z,52.5700
2022-09-15T01:52:36.228Z,52.6160
2022-09-15T01:53:38.475Z,52.5220
2022-09-15T01:54:40.667Z,52.6530
2022-09-15T01:55:42.897Z,52.6090
2022-09-15T01:56:42.985Z,52.5970
2022-09-15T01:57:45.174Z,52.5140
2022-09-15T01:58:47.433Z,52.5160
2022-09-15T01:59:49.601Z,52.7650
2022-09-15T02:00:51.859Z,52.9470
2022-09-15T02:01:54.047Z,53.0600
2022-09-15T02:02:56.298Z,52.9900
2022-09-15T02:03:58.481Z,52.8950
2022-09-15T02:05:00.682Z,52.7080
2022-09-15T02:06:02.896Z,52.6950
2022-09-15T02:07:05.126Z,52.7240
2022-09-15T02:08:07.357Z,52.7120
2022-09-15T02:09:09.614Z,52.7180
2022-09-15T02:10:09.669Z,52.6850
2022-09-15T02:11:11.902Z,52.6300
2022-09-15T02:12:14.130Z,52.5750
2022-09-15T02:13:16.369Z,52.6370
2022-09-15T02:14:18.630Z,52.5510
2022-09-15T02:15:20.825Z,52.5700
2022-09-15T02:16:23.099Z,52.6850
2022-09-15T02:17:25.246Z,52.5630
2022-09-15T02:18:27.503Z,52.5630
2022-09-15T02:19:29.725Z,52.5280
2022-09-15T02:20:31.912Z,52.4280
2022-09-15T02:21:34.150Z,52.4560
2022-09-15T02:22:34.242Z,52.3970
2022-09-15T02:23:36.461Z,52.3040
2022-09-15T02:24:38.719Z,52.2440
2022-09-15T02:25:40.913Z,52.1790
2022-09-15T02:26:43.140Z,52.1480
2022-09-15T02:27:45.365Z,52.1920
2022-09-15T02:28:47.533Z,52.2850
2022-09-15T02:29:49.775Z,52.5100
2022-09-15T02:30:51.947Z,52.4550
2022-09-15T02:31:54.314Z,52.3550
2022-09-15T02:32:56.395Z,52.3390
2022-09-15T02:33:58.632Z,52.2790
2022-09-15T02:35:00.874Z,52.3080
2022-09-15T02:36:00.954Z,52.2040
2022-09-15T02:37:03.218Z,52.2250
2022-09-15T02:38:05.475Z,52.1540
2022-09-15T02:39:07.652Z,52.1290
2022-09-15T02:40:09.956Z,52.0230
2022-09-15T02:41:12.037Z,52.0880
2022-09-15T02:42:14.214Z,51.9970
2022-09-15T02:43:16.415Z,51.9610
2022-09-15T02:44:18.602Z,52.0070
2022-09-15T02:45:20.883Z,51.9420
2022-09-15T02:46:22.999Z,52.0510
2022-09-15T02:47:25.206Z,52.1190
2022-09-15T02:48:27.417Z,52.1370
2022-09-15T02:50:02.035Z,52.3220
2022-09-15T02:51:04.187Z,52.3110
2022-09-15T02:52:06.319Z,52.2990
2022-09-15T02:53:06.367Z,52.3440
2022-09-15T02:54:08.562Z,52.3170
2022-09-15T02:55:10.759Z,52.1630
2022-09-15T02:56:12.965Z,52.1570
2022-09-15T02:57:15.082Z,52.2280
2022-09-15T02:58:17.240Z,52.1570
2022-09-15T02:59:19.403Z,52.2400
2022-09-15T03:00:21.543Z,52.2560
2022-09-15T03:01:23.864Z,52.2560
2022-09-15T03:02:25.957Z,52.2280
2022-09-15T03:03:28.077Z,52.2290
2022-09-15T03:04:30.195Z,52.1960
2022-09-15T03:05:32.408Z,52.1790
2022-09-15T03:06:34.596Z,52.1850
2022-09-15T03:07:36.747Z,52.2390
2022-09-15T03:08:38.869Z,52.2710
2022-09-15T03:09:41.052Z,52.1590
2022-09-15T03:10:43.258Z,52.2410
2022-09-15T03:11:45.469Z,52.3350
2022-09-15T03:12:47.642Z,52.3170
2022-09-15T03:13:49.857Z,52.2680
2022-09-15T03:14:52.051Z,52.3100
2022-09-15T03:15:52.180Z,52.2700
2022-09-15T03:16:54.354Z,52.2770
2022-09-15T03:17:56.541Z,52.2120
2022-09-15T03:18:58.764Z,52.1520
2022-09-15T03:20:00.962Z,52.1710
2022-09-15T03:21:03.178Z,52.1450
2022-09-15T03:22:05.385Z,52.1410
2022-09-15T03:23:07.538Z,52.2630
2022-09-15T03:24:09.666Z,52.2590
2022-09-15T03:25:11.758Z,52.4320
2022-09-15T03:26:13.861Z,52.2770
2022-09-15T03:27:16.004Z,52.2530
2022-09-15T03:28:16.583Z,52.2770
2022-09-15T03:29:18.011Z,52.4190
2022-09-15T03:30:20.164Z,52.4600
2022-09-15T03:31:20.282Z,52.4960
2022-09-15T03:32:22.472Z,52.5020
2022-09-15T03:33:24.603Z,52.4650
2022-09-15T03:34:26.772Z,52.4970
2022-09-15T03:35:28.903Z,52.4680
2022-09-15T03:36:31.117Z,52.4160
2022-09-15T03:37:33.333Z,52.4610
2022-09-15T03:38:35.509Z,52.4710
2022-09-15T03:39:37.721Z,52.5730
2022-09-15T03:40:39.925Z,52.5510
2022-09-15T03:41:42.139Z,52.5260
2022-09-15T03:42:44.347Z,52.5060
2022-09-15T03:43:46.491Z,52.6130
2022-09-15T03:44:48.700Z,52.6260
2022-09-15T03:45:50.968Z,52.8270
2022-09-15T03:46:53.119Z,52.9230
2022-09-15T03:47:55.369Z,52.9730
2022-09-15T03:48:57.539Z,52.8860
2022-09-15T03:49:59.765Z,52.7460
2022-09-15T03:50:59.842Z,52.6820
2022-09-15T03:52:02.074Z,52.6960
2022-09-15T03:53:04.285Z,52.7210
2022-09-15T03:54:06.508Z,52.8810
2022-09-15T03:55:08.745Z,52.8830
2022-09-15T03:56:10.981Z,52.9060
2022-09-15T03:57:13.222Z,52.9480
2022-09-15T03:58:15.501Z,52.9060
2022-09-15T03:59:17.708Z,53.1870
2022-09-15T04:00:19.954Z,53.1190
2022-09-15T04:01:22.290Z,52.9890
2022-09-15T04:02:22.317Z,53.0930
2022-09-15T04:03:24.476Z,53.4500
2022-09-15T04:04:26.662Z,53.2180
2022-09-15T04:05:28.893Z,53.6670
2022-09-15T04:06:31.126Z,53.5820
2022-09-15T04:07:33.430Z,53.3470
2022-09-15T04:08:35.730Z,53.1350
2022-09-15T04:09:37.978Z,52.9110
2022-09-15T04:10:40.243Z,52.8810
2022-09-15T04:11:42.515Z,52.9520
2022-09-15T04:12:44.811Z,53.3810
2022-09-15T04:13:47.112Z,53.5830
2022-09-15T04:14:49.362Z,53.9470
2022-09-15T04:15:51.682Z,54.1130
2022-09-15T04:16:53.842Z,53.9920
2022-09-15T04:17:56.113Z,53.8180
2022-09-15T04:18:56.290Z,53.5670
2022-09-15T04:19:58.531Z,53.3620
2022-09-15T04:21:00.788Z,53.1780
2022-09-15T04:22:03.023Z,53.0570
2022-09-15T04:23:05.307Z,52.9570
2022-09-15T04:24:07.590Z,52.9200
2022-09-15T04:25:09.828Z,52.8550
2022-09-15T04:26:12.041Z,52.8800
2022-09-15T04:27:12.164Z,52.8890
2022-09-15T04:28:14.465Z,52.9140
2022-09-15T04:29:16.785Z,53.0280
2022-09-15T04:30:19.055Z,53.0530
2022-09-15T04:31:21.389Z,53.0820
2022-09-15T04:32:23.628Z,53.1650
2022-09-15T04:33:25.909Z,53.1520
2022-09-15T04:34:41.614Z,53.1780
2022-09-15T04:35:41.188Z,53.0690
2022-09-15T04:36:43.379Z,52.9980
2022-09-15T04:37:45.563Z,52.9130
2022-09-15T04:38:47.760Z,52.8600
2022-09-15T04:39:49.964Z,52.8350
2022-09-15T04:40:52.089Z,52.8020
2022-09-15T04:41:54.334Z,52.8500
2022-09-15T04:42:56.571Z,52.8260
2022-09-15T04:43:58.691Z,53.2870
2022-09-15T04:45:00.898Z,53.2200
2022-09-15T04:46:03.009Z,53.2550
2022-09-15T04:47:05.326Z,53.9880
2022-09-15T04:48:07.417Z,54.0710
2022-09-15T04:49:09.649Z,53.7750
2022-09-15T04:50:11.894Z,53.5080
2022-09-15T04:51:13.997Z,53.3560
2022-09-15T04:52:16.208Z,53.0780
2022-09-15T04:53:18.440Z,53.0170
2022-09-15T04:54:20.665Z,52.9690
2022-09-15T04:55:20.751Z,52.9530
2022-09-15T04:56:22.978Z,52.8860
2022-09-15T04:57:25.226Z,52.9030
2022-09-15T04:58:27.436Z,52.8800
2022-09-15T04:59:29.579Z,52.8790
2022-09-15T05:00:31.842Z,52.8330
2022-09-15T05:01:34.116Z,53.0150
2022-09-15T05:02:36.272Z,53.1820
2022-09-15T05:03:38.394Z,53.0880
2022-09-15T05:04:40.586Z,53.0180
2022-09-15T05:05:42.909Z,53.0930
2022-09-15T05:06:44.973Z,53.0520
2022-09-15T05:07:47.145Z,53.1410
2022-09-15T05:08:49.226Z,53.1490
2022-09-15T05:09:50.340Z,53.1520
2022-09-15T05:10:52.632Z,53.3420
2022-09-15T05:11:53.796Z,53.6360
2022-09-15T05:12:55.990Z,53.5490
2022-09-15T05:13:56.098Z,53.3750
2022-09-15T05:14:58.384Z,53.3140
2022-09-15T05:16:00.768Z,53.5120
2022-09-15T05:17:02.992Z,53.9330
2022-09-15T05:18:07.322Z,53.8030
2022-09-15T05:18:45.972Z,53.6300
2022-09-15T05:19:48.246Z,53.4530
2022-09-15T05:20:48.327Z,53.3560
2022-09-15T05:21:50.646Z,53.2710
2022-09-15T05:22:52.881Z,53.3020
2022-09-15T05:23:55.159Z,53.3330
2022-09-15T05:24:57.464Z,53.3060
2022-09-15T05:25:59.753Z,53.2960
2022-09-15T05:27:02.068Z,53.2590
2022-09-15T05:28:04.329Z,53.2070
2022-09-15T05:29:04.465Z,53.1670
2022-09-15T05:30:34.879Z,53.2070
2022-09-15T05:31:09.064Z,53.1670
2022-09-15T05:32:11.312Z,53.1040
2022-09-15T05:33:13.583Z,53.0630
2022-09-15T05:34:15.870Z,53.0580
2022-09-15T05:35:18.104Z,53.1070
2022-09-15T05:36:18.157Z,53.1230
2022-09-15T05:37:20.416Z,53.3900
2022-09-15T05:38:22.605Z,53.2670
2022-09-15T05:39:24.873Z,53.2130
2022-09-15T05:40:27.268Z,53.2260
2022-09-15T05:41:29.471Z,53.1660
2022-09-15T05:42:31.717Z,53.1780
2022-09-15T05:43:33.882Z,53.1910
2022-09-15T05:44:59.322Z,53.2540
2022-09-15T05:46:02.243Z,53.1530
2022-09-15T05:47:04.236Z,53.0520
2022-09-15T05:48:06.487Z,53.0770
2022-09-15T05:49:06.561Z,53.0820
2022-09-15T05:50:08.816Z,53.0830
2022-09-15T05:51:11.065Z,53.0690
2022-09-15T05:52:13.250Z,53.0300
2022-09-15T05:53:15.474Z,52.9790
2022-09-15T05:54:17.659Z,53.0520
2022-09-15T05:55:19.865Z,53.0590
2022-09-15T05:56:22.084Z,52.9600
2022-09-15T05:57:24.264Z,52.7980
2022-09-15T05:58:26.537Z,52.8970
2022-09-15T05:59:28.736Z,52.9410
2022-09-15T06:00:30.975Z,52.9750
2022-09-15T06:01:33.233Z,52.9930
2022-09-15T06:02:35.395Z,53.0100
2022-09-15T06:03:37.536Z,53.0190
2022-09-15T06:04:37.588Z,52.9220
2022-09-15T06:05:39.802Z,52.8870
2022-09-15T06:07:54.012Z,52.9560
2022-09-15T06:08:58.403Z,52.8970
2022-09-15T06:09:56.304Z,52.9330
2022-09-15T06:10:58.551Z,52.8750
2022-09-15T06:12:00.828Z,52.8390
2022-09-15T06:13:03.055Z,52.7660
2022-09-15T06:14:05.300Z,52.7610
2022-09-15T06:15:07.525Z,52.6770
2022-09-15T06:16:09.896Z,52.6720
2022-09-15T06:17:12.050Z,52.6220
2022-09-15T06:18:14.330Z,52.6060
2022-09-15T06:18:59.397Z,52.5830
2022-09-15T06:20:01.714Z,52.4580
2022-09-15T06:21:03.986Z,52.4930
2022-09-15T06:22:06.197Z,52.5180
2022-09-15T06:23:08.446Z,52.5450
2022-09-15T06:24:10.671Z,52.4770
2022-09-15T06:25:12.960Z,52.5830
2022-09-15T06:26:15.175Z,52.5350
2022-09-15T06:27:15.297Z,52.5180
2022-09-15T06:28:17.555Z,52.4800
2022-09-15T06:29:19.810Z,52.5160
2022-09-15T06:30:22.139Z,52.4680
2022-09-15T06:31:24.435Z,52.4230
2022-09-15T06:32:26.597Z,52.3580
2022-09-15T06:33:28.815Z,52.3710
2022-09-15T06:34:31.034Z,52.3980
2022-09-15T06:35:33.304Z,52.4680
2022-09-15T06:36:33.361Z,52.4560
2022-09-15T06:37:35.552Z,52.4330
2022-09-15T06:38:37.704Z,52.3390
2022-09-15T06:39:39.920Z,52.2770
2022-09-15T06:40:42.213Z,52.3140
2022-09-15T06:42:01.862Z,52.3730
2022-09-15T06:42:46.694Z,52.3460
2022-09-15T06:43:48.973Z,52.3110
2022-09-15T06:44:51.227Z,52.2630
2022-09-15T06:45:53.589Z,52.2380
2022-09-15T06:46:55.797Z,52.2210
2022-09-15T06:48:20.256Z,52.1630
2022-09-15T06:48:58.249Z,52.2890
2022-09-15T06:50:02.649Z,52.2730
2022-09-15T06:51:02.827Z,52.3210
2022-09-15T06:52:05.076Z,52.2920
2022-09-15T06:53:07.363Z,52.2960
2022-09-15T06:54:07.489Z,52.2380
2022-09-15T06:55:09.695Z,52.2090
2022-09-15T06:56:11.998Z,52.1550
2022-09-15T06:57:14.268Z,52.1900
2022-09-15T06:58:16.576Z,52.1490
2022-09-15T06:59:18.767Z,52.2030
2022-09-15T07:00:20.960Z,52.1860
2022-09-15T07:01:23.223Z,52.2440
2022-09-15T07:02:25.539Z,52.3310
2022-09-15T07:03:25.660Z,52.3110
2022-09-15T07:04:27.774Z,52.2960
2022-09-15T07:05:30.012Z,52.2220
2022-09-15T07:06:32.251Z,52.2570
2022-09-15T07:07:34.446Z,52.2900
2022-09-15T07:08:36.722Z,52.2800
2022-09-15T07:09:41.361Z,52.2220
2022-09-15T07:10:41.212Z,52.1970
2022-09-15T07:11:43.455Z,52.2420
2022-09-15T07:12:45.689Z,52.2300
2022-09-15T07:13:47.939Z,52.2730
2022-09-15T07:14:48.003Z,52.2680
2022-09-15T07:15:50.296Z,52.2300
2022-09-15T07:16:52.530Z,52.1950
2022-09-15T07:17:54.754Z,52.2490
2022-09-15T07:18:56.999Z,52.2680
2022-09-15T07:19:59.207Z,52.2420
2022-09-15T07:21:01.421Z,52.2260
2022-09-15T07:22:03.652Z,52.2360
2022-09-15T07:23:05.870Z,52.3560
2022-09-15T07:24:08.117Z,52.4150
2022-09-15T07:25:08.229Z,52.4850
2022-09-15T07:26:10.476Z,52.4310
2022-09-15T07:27:12.765Z,52.4110
2022-09-15T07:28:15.029Z,52.3840
2022-09-15T07:29:16.172Z,52.4270
2022-09-15T07:30:18.457Z,52.6830
2022-09-15T07:30:28.163Z,52.7180
2022-09-15T07:31:30.450Z,52.6700
2022-09-15T07:32:32.662Z,52.5590
2022-09-15T07:33:34.902Z,52.4610
2022-09-15T07:34:37.147Z,52.4140
2022-09-15T07:35:39.401Z,52.3780
2022-09-15T07:36:41.618Z,52.3530
2022-09-15T07:37:43.869Z,52.3910
2022-09-15T07:38:46.066Z,52.3780
2022-09-15T07:39:48.341Z,52.4620
2022-09-15T07:40:48.420Z,52.5330
2022-09-15T07:41:50.671Z,52.6180
2022-09-15T07:42:53.004Z,52.7360
2022-09-15T07:43:55.313Z,52.8070
2022-09-15T07:44:57.607Z,52.8470
2022-09-15T07:45:59.913Z,52.9530
2022-09-15T07:47:02.171Z,52.9720
2022-09-15T07:48:02.339Z,53.1040
2022-09-15T07:49:04.635Z,53.1210
2022-09-15T07:50:06.934Z,53.2420
2022-09-15T07:51:09.194Z,53.2460
2022-09-15T07:52:11.448Z,53.1810
2022-09-15T07:53:13.742Z,53.1560
2022-09-15T07:54:19.565Z,53.3060
2022-09-15T07:55:18.261Z,53.4110
2022-09-15T07:56:18.379Z,53.4490
2022-09-15T07:57:20.628Z,53.4360
2022-09-15T07:58:22.944Z,53.4280
2022-09-15T07:59:25.145Z,53.3800
2022-09-15T08:00:27.487Z,53.4590
2022-09-15T08:01:29.725Z,53.4580
2022-09-15T08:02:31.966Z,53.4730
2022-09-15T08:04:36.509Z,53.5560
2022-09-15T08:05:42.299Z,53.5710
2022-09-15T08:06:39.649Z,53.5540
2022-09-15T08:07:40.846Z,53.5410
2022-09-15T08:08:43.040Z,53.6570
2022-09-15T08:09:45.261Z,53.8790
2022-09-15T08:10:47.391Z,53.9480
2022-09-15T08:11:49.548Z,53.9550
2022-09-15T08:12:51.749Z,53.9610
2022-09-15T08:13:53.936Z,53.9160
2022-09-15T08:14:56.146Z,53.8290
2022-09-15T08:15:58.340Z,53.8840
2022-09-15T08:17:00.471Z,53.9300
2022-09-15T08:18:00.540Z,53.9340
2022-09-15T08:19:02.757Z,53.9070
2022-09-15T08:20:05.033Z,53.8630
2022-09-15T08:21:07.230Z,53.8590
2022-09-15T08:22:09.505Z,53.9180
2022-09-15T08:23:11.751Z,54.0630
2022-09-15T08:24:14.039Z,54.0750
2022-09-15T08:25:16.321Z,54.0830
2022-09-15T08:26:18.574Z,54.0420
2022-09-15T08:27:20.842Z,54.0000
2022-09-15T08:28:20.975Z,53.9820
2022-09-15T08:29:23.266Z,53.9620
2022-09-15T08:30:25.549Z,53.9530
2022-09-15T08:31:27.852Z,54.0240
2022-09-15T08:32:29.929Z,54.1070
2022-09-15T08:33:32.145Z,54.1140
2022-09-15T08:34:34.352Z,54.2700
2022-09-15T08:35:36.545Z,54.2890
2022-09-15T08:36:38.699Z,54.3540
2022-09-15T08:37:40.890Z,54.3110
2022-09-15T08:38:43.143Z,54.2650
2022-09-15T08:39:45.366Z,54.3360
2022-09-15T08:40:47.578Z,54.4980
2022-09-15T08:41:49.761Z,54.6540
2022-09-15T08:42:44.903Z,54.7560
2022-09-15T08:43:43.634Z,54.6690
2022-09-15T08:44:45.729Z,54.5710
2022-09-15T08:45:47.944Z,54.5290
2022-09-15T08:46:50.267Z,54.6110
2022-09-15T08:47:52.374Z,54.6570
2022-09-15T08:48:54.601Z,54.6430
2022-09-15T08:49:56.804Z,54.6010
2022-09-15T08:50:59.082Z,54.6220
2022-09-15T08:51:59.165Z,54.6280
2022-09-15T08:53:01.375Z,54.6480
2022-09-15T08:54:03.647Z,54.6940
2022-09-15T08:55:05.885Z,54.8620
2022-09-15T08:56:10.021Z,54.9870
2022-09-15T08:57:10.444Z,54.9590
2022-09-15T08:58:12.623Z,54.9580
2022-09-15T08:59:14.872Z,55.0170
2022-09-15T09:00:17.212Z,55.0420
2022-09-15T09:01:19.447Z,55.2360
2022-09-15T09:02:19.634Z,55.1620
2022-09-15T09:03:21.785Z,55.1920
2022-09-15T09:04:24.007Z,55.3120
2022-09-15T09:05:26.277Z,55.4590
2022-09-15T09:06:28.524Z,55.5080
2022-09-15T09:07:30.791Z,55.5060
2022-09-15T09:08:33.036Z,55.4010
2022-09-15T09:09:35.285Z,55.3120
2022-09-15T09:10:37.509Z,55.2640
2022-09-15T09:11:37.606Z,55.2220
2022-09-15T09:12:39.898Z,55.3200
2022-09-15T09:13:42.116Z,55.4820
2022-09-15T09:14:44.410Z,55.5350
2022-09-15T09:15:46.772Z,55.7080
2022-09-15T09:16:48.922Z,56.0030
2022-09-15T09:17:51.314Z,55.6800
2022-09-15T09:18:53.483Z,55.7140
2022-09-15T09:19:53.600Z,55.6000
2022-09-15T09:20:55.859Z,55.3820
2022-09-15T09:21:58.081Z,55.3930
2022-09-15T09:23:00.286Z,55.4610
2022-09-15T09:24:02.391Z,55.5090
2022-09-15T09:25:21.281Z,55.4130
2022-09-15T09:26:10.444Z,55.3710
2022-09-15T09:27:08.976Z,55.4170
2022-09-15T09:28:11.180Z,55.3940
2022-09-15T09:29:13.356Z,55.4300
2022-09-15T09:30:15.555Z,55.3810
2022-09-15T09:31:17.825Z,55.3520
2022-09-15T09:32:21.749Z,55.3520
2022-09-15T09:33:22.334Z,55.5220
2022-09-15T09:34:22.329Z,55.4350
2022-09-15T09:35:24.616Z,55.6240
2022-09-15T09:36:26.916Z,55.5820
2022-09-15T09:37:29.197Z,55.5490
2022-09-15T09:38:31.506Z,55.5040
2022-09-15T09:39:33.763Z,55.4770
2022-09-15T09:40:36.101Z,55.5000
2022-09-15T09:41:38.257Z,55.5420
2022-09-15T09:42:38.328Z,55.5890
2022-09-15T09:43:40.622Z,55.6620
2022-09-15T09:44:42.823Z,55.5760
2022-09-15T09:45:45.131Z,55.5070
2022-09-15T09:46:47.394Z,55.2630
2022-09-15T09:47:49.616Z,55.1890
2022-09-15T09:48:49.801Z,55.0760
2022-09-15T09:49:52.084Z,54.9730
2022-09-15T09:50:54.307Z,54.9070
2022-09-15T09:51:56.608Z,54.9370
2022-09-15T09:52:58.919Z,54.9370
2022-09-15T09:54:01.285Z,54.9970
2022-09-15T09:55:03.580Z,54.9750
2022-09-15T09:56:05.893Z,54.9870
2022-09-15T09:57:06.018Z,54.9030
2022-09-15T09:58:08.317Z,54.8560
2022-09-15T09:59:10.622Z,54.8850
2022-09-15T10:00:12.906Z,54.9130
2022-09-15T10:01:15.274Z,54.8900
2022-09-15T10:02:17.408Z,54.8900
2022-09-15T10:03:19.633Z,54.8370
2022-09-15T10:04:21.973Z,54.8080
2022-09-15T10:05:24.051Z,54.8180
2022-09-15T10:06:24.130Z,54.7570
2022-09-15T10:07:26.368Z,54.6920
2022-09-15T10:08:28.574Z,54.7110
2022-09-15T10:09:33.394Z,54.6010
2022-09-15T10:10:32.979Z,54.5820
2022-09-15T10:11:35.214Z,54.5900
2022-09-15T10:12:37.447Z,54.6320
2022-09-15T10:13:39.687Z,54.5520
2022-09-15T10:14:41.926Z,54.5130
2022-09-15T10:15:44.148Z,54.4790
2022-09-15T10:16:46.405Z,54.4160
2022-09-15T10:17:48.604Z,54.5060
2022-09-15T10:18:54.327Z,54.4330
2022-09-15T10:19:51.062Z,54.4920
2022-09-15T10:20:53.303Z,54.5420
2022-09-15T10:21:55.575Z,54.5460
2022-09-15T10:22:57.887Z,54.5530
2022-09-15T10:24:00.107Z,54.5250
2022-09-15T10:25:02.377Z,54.5000
2022-09-15T10:26:02.362Z,54.4710
2022-09-15T10:27:04.513Z,54.4160
2022-09-15T10:28:06.688Z,54.2840
2022-09-15T10:29:08.846Z,54.2590
2022-09-15T10:30:11.080Z,54.2610
2022-09-15T10:31:13.292Z,54.1990
2022-09-15T10:32:15.515Z,54.2410
2022-09-15T10:33:17.693Z,54.2760
2022-09-15T10:34:19.879Z,54.3270
2022-09-15T10:35:22.120Z,54.3610
2022-09-15T10:36:24.281Z,54.2990
2022-09-15T10:37:26.480Z,54.4680
2022-09-15T10:38:28.712Z,54.4340
2022-09-15T10:39:30.944Z,54.4610
2022-09-15T10:40:33.278Z,54.4410
2022-09-15T10:41:35.326Z,54.4280
2022-09-15T10:42:37.512Z,54.5060
2022-09-15T10:43:39.719Z,54.4450
2022-09-15T10:44:41.940Z,54.3770
2022-09-15T10:45:42.076Z,54.3830
2022-09-15T10:46:44.209Z,54.4420
2022-09-15T10:47:46.371Z,54.4480
2022-09-15T10:48:48.523Z,54.4670
2022-09-15T10:49:50.676Z,54.4910
2022-09-15T10:50:52.893Z,54.4470
2022-09-15T10:51:55.024Z,54.4840
2022-09-15T10:52:57.220Z,54.5400
2022-09-15T10:53:59.585Z,54.5520
2022-09-15T10:55:01.637Z,54.5460
2022-09-15T10:56:03.875Z,54.5740
2022-09-15T10:57:06.011Z,54.5760
2022-09-15T10:58:08.172Z,54.5580
2022-09-15T10:59:10.321Z,54.5980
2022-09-15T11:00:12.473Z,54.4940
2022-09-15T11:01:14.742Z,54.5100
2022-09-15T11:02:16.826Z,54.4940
2022-09-15T11:03:19.012Z,54.4880
2022-09-15T11:04:21.230Z,54.4120
2022-09-15T11:05:23.421Z,54.4060
2022-09-15T11:06:25.643Z,54.2740
2022-09-15T11:07:27.771Z,54.3030
2022-09-15T11:08:29.956Z,54.3580
2022-09-15T11:09:32.126Z,54.3520
2022-09-15T11:10:34.263Z,54.3890
2022-09-15T11:11:36.450Z,54.4810
2022-09-15T11:12:38.572Z,54.4750
2022-09-15T11:13:40.765Z,54.5200
2022-09-15T11:14:40.779Z,54.5780
2022-09-15T11:15:42.863Z,54.5650
2022-09-15T11:16:45.146Z,54.5780
2022-09-15T11:17:47.235Z,54.5320
2022-09-15T11:18:49.455Z,54.4590
2022-09-15T11:19:51.689Z,54.4190
2022-09-15T11:20:53.892Z,54.4190
2022-09-15T11:21:56.117Z,54.4880
2022-09-15T11:22:58.249Z,54.4600
2022-09-15T11:24:00.416Z,54.3740
2022-09-15T11:25:02.587Z,54.3760
2022-09-15T11:26:04.769Z,54.3830
2022-09-15T11:27:07.143Z,54.4280
2022-09-15T11:28:09.106Z,54.5500
2022-09-15T11:29:11.256Z,54.6360
2022-09-15T11:30:11.213Z,54.6150
2022-09-15T11:31:13.425Z,54.5560
2022-09-15T11:32:15.590Z,54.6000
2022-09-15T11:33:17.715Z,54.5750
2022-09-15T11:34:19.852Z,54.5910
2022-09-15T11:35:22.032Z,54.5780
2022-09-15T11:36:24.210Z,54.4990
2022-09-15T11:37:26.453Z,54.4880
2022-09-15T11:38:28.546Z,54.5380
2022-09-15T11:39:30.727Z,54.4650
2022-09-15T11:40:32.982Z,54.3980
2022-09-15T11:41:35.070Z,54.3750
2022-09-15T11:42:37.267Z,54.4120
2022-09-15T11:43:39.412Z,54.4710
2022-09-15T11:44:41.578Z,54.5720
2022-09-15T11:45:43.743Z,54.5720
2022-09-15T11:46:45.960Z,54.5590
2022-09-15T11:47:48.103Z,54.5200
2022-09-15T11:48:50.221Z,54.5300
2022-09-15T11:49:52.392Z,54.4780
2022-09-15T11:50:54.544Z,54.4990
2022-09-15T11:51:56.650Z,54.4700
2022-09-15T11:52:58.881Z,54.5600
2022-09-15T11:54:00.970Z,54.5560
2022-09-15T11:55:03.109Z,54.5140
2022-09-15T11:56:05.269Z,54.4360
2022-09-15T11:57:07.426Z,54.4240
2022-09-15T11:58:09.616Z,54.4340
2022-09-15T11:59:11.768Z,54.5660
2022-09-15T12:00:13.895Z,54.5980
2022-09-15T12:01:16.032Z,54.5710
2022-09-15T12:02:18.353Z,54.5860
2022-09-15T12:03:20.441Z,54.5120
2022-09-15T12:04:22.559Z,54.5830
2022-09-15T12:05:24.689Z,54.5380
2022-09-15T12:06:26.842Z,54.5420
2022-09-15T12:08:05.726Z,54.6910
2022-09-15T12:09:07.893Z,54.6510
2022-09-15T12:10:10.062Z,54.5940
2022-09-15T12:11:12.273Z,54.5710
2022-09-15T12:12:14.487Z,54.8120
2022-09-15T12:13:14.558Z,54.8120
2022-09-15T12:14:16.806Z,54.8340
2022-09-15T12:15:18.984Z,54.6990
2022-09-15T12:16:21.243Z,54.6570
2022-09-15T12:17:23.375Z,54.6150
2022-09-15T12:18:42.719Z,54.5970
2022-09-15T12:19:27.819Z,54.6450
2022-09-15T12:20:30.012Z,54.7120
2022-09-15T12:21:32.243Z,54.7290
2022-09-15T12:22:34.479Z,54.8230
2022-09-15T12:23:36.745Z,54.7330
2022-09-15T12:24:38.983Z,54.7350
2022-09-15T12:25:41.194Z,54.6580
2022-09-15T12:26:41.246Z,54.5970
2022-09-15T12:27:43.475Z,54.5720
2022-09-15T12:28:45.716Z,54.6260
2022-09-15T12:29:47.942Z,54.6030
2022-09-15T12:30:50.150Z,54.5490
2022-09-15T12:31:52.385Z,54.4890
2022-09-15T12:32:54.615Z,54.5780
2022-09-15T12:33:56.824Z,54.5230